createdAt,value
2022-08-05T00:01:49.512Z,18.95
2022-08-05T00:05:05.727Z,18.89
2022-08-05T00:08:32.432Z,18.86
2022-08-05T00:11:35.077Z,18.81
2022-08-05T00:14:45.105Z,18.79
2022-08-05T00:17:58.668Z,18.85
2022-08-05T00:21:14.526Z,18.79
2022-08-05T00:24:30.718Z,18.80
2022-08-05T00:27:42.794Z,18.77
2022-08-05T00:30:53.773Z,18.74
2022-08-05T00:34:53.816Z,18.56
2022-08-05T00:37:20.881Z,18.58
2022-08-05T00:40:33.960Z,18.61
2022-08-05T00:43:49.907Z,18.57
2022-08-05T00:47:03.707Z,18.56
2022-08-05T00:50:15.867Z,18.50
2022-08-05T00:54:00.575Z,18.44
2022-08-05T00:56:51.365Z,18.49
2022-08-05T00:59:57.146Z,18.45
2022-08-05T01:03:09.121Z,18.50
2022-08-05T01:06:20.983Z,18.49
2022-08-05T01:09:34.656Z,18.41
2022-08-05T01:13:05.026Z,18.33
2022-08-05T01:16:11.295Z,18.11
2022-08-05T01:20:01.854Z,18.08
2022-08-05T01:23:15.385Z,18.12
2022-08-05T01:26:41.792Z,17.95
2022-08-05T01:29:56.955Z,17.83
2022-08-05T01:33:12.576Z,17.77
2022-08-05T01:36:30.130Z,17.84
2022-08-05T01:39:46.274Z,17.81
2022-08-05T01:43:00.866Z,17.82
2022-08-05T01:46:16.363Z,17.79
2022-08-05T01:50:00.035Z,17.74
2022-08-05T01:52:50.394Z,17.84
2022-08-05T01:56:04.941Z,17.76
2022-08-05T01:59:22.945Z,17.69
2022-08-05T02:02:37.335Z,17.66
2022-08-05T02:05:53.505Z,17.66
2022-08-05T02:09:07.364Z,17.63
2022-08-05T02:12:25.385Z,17.60
2022-08-05T02:15:42.769Z,17.51
2022-08-05T02:19:01.007Z,17.44
2022-08-05T02:22:26.821Z,17.35
2022-08-05T02:25:49.779Z,17.32
2022-08-05T02:28:54.746Z,17.25
2022-08-05T02:32:07.937Z,17.18
2022-08-05T02:35:32.969Z,17.16
2022-08-05T02:38:38.982Z,17.15
2022-08-05T02:42:00.541Z,17.16
2022-08-05T02:45:08.492Z,17.14
2022-08-05T02:48:29.120Z,17.21
2022-08-05T02:52:03.823Z,17.19
2022-08-05T02:54:54.821Z,17.23
2022-08-05T02:58:13.285Z,17.28
2022-08-05T03:01:27.895Z,17.24
2022-08-05T03:04:40.789Z,17.19
2022-08-05T03:08:01.712Z,17.04
2022-08-05T03:11:55.787Z,16.95
2022-08-05T03:14:23.314Z,17.01
2022-08-05T03:17:41.540Z,17.01
2022-08-05T03:20:49.131Z,16.90
2022-08-05T03:24:03.129Z,16.93
2022-08-05T03:27:15.001Z,16.99
2022-08-05T03:30:33.789Z,17.05
2022-08-05T03:33:51.134Z,16.94
2022-08-05T03:36:57.021Z,16.80
2022-08-05T03:40:11.992Z,16.75
2022-08-05T03:44:08.756Z,16.67
2022-08-05T03:46:41.892Z,16.68
2022-08-05T03:49:54.475Z,16.65
2022-08-05T03:55:50.896Z,16.66
2022-08-05T03:56:35.710Z,16.72
2022-08-05T03:59:55.569Z,16.76
2022-08-05T04:03:08.860Z,16.87
2022-08-05T04:06:24.335Z,16.94
2022-08-05T04:09:37.923Z,16.97
2022-08-05T04:12:51.778Z,16.99
2022-08-05T04:16:04.751Z,17.00
2022-08-05T04:19:19.006Z,17.03
2022-08-05T04:22:32.722Z,17.05
2022-08-05T04:25:57.404Z,17.16
2022-08-05T04:29:00.066Z,17.13
2022-08-05T04:32:13.380Z,17.20
2022-08-05T04:35:27.154Z,17.30
2022-08-05T04:38:41.727Z,17.28
2022-08-05T04:41:54.647Z,17.40
2022-08-05T04:45:07.139Z,17.44
2022-08-05T04:48:27.245Z,17.52
2022-08-05T04:51:35.588Z,17.54
2022-08-05T04:54:49.478Z,17.56
2022-08-05T04:58:01.286Z,17.60
2022-08-05T05:01:13.362Z,17.81
2022-08-05T05:04:25.219Z,18.03
2022-08-05T05:07:37.669Z,18.20
2022-08-05T05:10:56.353Z,18.19
2022-08-05T05:14:08.719Z,18.13
2022-08-05T05:17:24.192Z,18.12
2022-08-05T05:20:35.292Z,18.18
2022-08-05T05:24:03.926Z,18.31
2022-08-05T05:27:00.480Z,18.40
2022-08-05T05:30:30.825Z,18.55
2022-08-05T05:33:29.660Z,18.88
2022-08-05T05:36:43.243Z,19.40
2022-08-05T05:39:56.926Z,19.94
2022-08-05T05:43:09.446Z,20.30
2022-08-05T05:46:21.908Z,20.47
2022-08-05T05:49:34.219Z,20.62
2022-08-05T05:52:46.658Z,20.35
2022-08-05T05:56:00.657Z,20.33
2022-08-05T05:59:13.710Z,20.40
2022-08-05T06:02:32.801Z,20.42
2022-08-05T06:05:39.457Z,20.61
2022-08-05T06:08:53.199Z,20.82
2022-08-05T06:12:05.202Z,20.98
2022-08-05T06:15:24.162Z,21.03
2022-08-05T06:18:31.902Z,21.18
2022-08-05T06:21:49.620Z,21.44
2022-08-05T06:25:01.116Z,21.59
2022-08-05T06:28:20.879Z,21.73
2022-08-05T06:31:30.564Z,21.86
2022-08-05T06:34:42.379Z,22.17
2022-08-05T06:37:59.020Z,22.43
2022-08-05T06:41:11.643Z,22.70
2022-08-05T06:44:23.582Z,23.16
2022-08-05T06:48:44.067Z,23.70
2022-08-05T06:50:49.989Z,24.06
2022-08-05T06:54:02.824Z,24.70
2022-08-05T06:58:03.836Z,25.40
2022-08-05T07:00:31.361Z,25.53
2022-08-05T07:03:42.976Z,25.97
2022-08-05T07:06:55.586Z,26.19
2022-08-05T07:10:10.541Z,26.47
2022-08-05T07:13:57.839Z,26.76
2022-08-05T07:18:08.749Z,27.19
2022-08-05T07:23:29.723Z,27.44
2022-08-05T07:26:41.160Z,27.56
2022-08-05T07:30:24.482Z,27.83
2022-08-05T07:33:09.783Z,27.90
2022-08-05T07:36:21.693Z,28.18
2022-08-05T07:40:26.063Z,28.64
2022-08-05T07:42:48.217Z,28.62
2022-08-05T07:45:59.907Z,29.23
2022-08-05T07:49:13.897Z,29.48
2022-08-05T07:52:26.344Z,29.68
2022-08-05T07:55:44.557Z,29.69
2022-08-05T07:58:55.079Z,29.75
2022-08-05T08:02:07.269Z,29.66
2022-08-05T08:05:21.640Z,29.95
2022-08-05T08:08:33.267Z,30.09
2022-08-05T08:11:48.246Z,30.14
2022-08-05T08:15:02.119Z,30.29
2022-08-05T08:18:14.763Z,30.40
2022-08-05T08:21:28.501Z,30.63
2022-08-05T08:24:41.553Z,30.91
2022-08-05T08:27:55.586Z,31.29
2022-08-05T08:31:07.889Z,31.38
2022-08-05T08:34:30.304Z,31.36
2022-08-05T08:37:33.538Z,31.48
2022-08-05T08:40:51.750Z,31.40
2022-08-05T08:45:18.560Z,32.19
2022-08-05T08:47:21.764Z,32.85
2022-08-05T08:51:03.847Z,32.80
2022-08-05T08:53:47.472Z,32.86
2022-08-05T08:57:00.110Z,32.94
2022-08-05T09:00:15.628Z,32.96
2022-08-05T09:03:40.574Z,32.93
2022-08-05T09:06:41.526Z,33.41
2022-08-05T09:09:53.216Z,33.35
2022-08-05T09:13:05.672Z,33.34
2022-08-05T09:16:21.375Z,33.45
2022-08-05T09:19:36.319Z,34.04
2022-08-05T09:23:18.843Z,34.04
2022-08-05T09:26:30.223Z,33.99
2022-08-05T09:29:50.476Z,34.05
2022-08-05T09:33:06.880Z,34.01
2022-08-05T09:36:20.308Z,34.72
2022-08-05T09:39:45.447Z,35.58
2022-08-05T09:42:49.740Z,35.44
2022-08-05T09:46:08.726Z,34.82
2022-08-05T09:49:57.050Z,35.23
2022-08-05T09:52:44.902Z,35.16
2022-08-05T09:56:13.142Z,34.86
2022-08-05T09:59:20.255Z,34.92
2022-08-05T10:02:41.929Z,35.05
2022-08-05T10:06:14.697Z,35.03
2022-08-05T10:09:28.040Z,35.75
2022-08-05T10:12:49.750Z,35.87
2022-08-05T10:16:01.826Z,35.45
2022-08-05T10:19:14.191Z,36.27
2022-08-05T10:22:29.763Z,36.31
2022-08-05T10:25:41.084Z,36.41
2022-08-05T10:28:56.421Z,36.31
2022-08-05T10:32:52.206Z,35.62
2022-08-05T10:35:33.727Z,35.73
2022-08-05T10:38:39.967Z,36.16
2022-08-05T10:42:01.149Z,36.47
2022-08-05T10:45:23.622Z,35.95
2022-08-05T10:48:57.276Z,35.83
2022-08-05T10:52:04.981Z,35.56
2022-08-05T10:55:18.860Z,35.80
2022-08-05T10:58:35.943Z,35.50
2022-08-05T11:01:54.913Z,35.16
2022-08-05T11:05:03.655Z,35.38
2022-08-05T11:08:33.649Z,35.06
2022-08-05T11:11:52.341Z,35.46
2022-08-05T11:15:19.971Z,36.10
2022-08-05T11:18:47.148Z,35.51
2022-08-05T11:21:58.135Z,35.75
2022-08-05T11:26:05.849Z,35.70
2022-08-05T11:29:05.176Z,35.67
2022-08-05T11:32:31.386Z,36.00
2022-08-05T11:36:08.552Z,35.77
2022-08-05T11:39:19.671Z,35.37
2022-08-05T11:42:32.034Z,35.41
2022-08-05T11:46:27.025Z,35.13
2022-08-05T11:49:11.064Z,35.16
2022-08-05T11:52:31.137Z,35.16
2022-08-05T11:55:43.420Z,36.02
2022-08-05T11:58:57.103Z,35.86
2022-08-05T12:02:12.168Z,35.83
2022-08-05T12:05:39.573Z,35.83
2022-08-05T12:08:53.077Z,35.52
2022-08-05T12:12:05.199Z,35.25
2022-08-05T12:15:35.925Z,35.55
2022-08-05T12:18:48.928Z,35.69
2022-08-05T12:21:58.324Z,36.04
2022-08-05T12:25:14.286Z,35.61
2022-08-05T12:28:40.141Z,35.38
2022-08-05T12:32:02.080Z,35.47
2022-08-05T12:35:16.872Z,35.41
2022-08-05T12:38:31.562Z,35.36
2022-08-05T12:41:45.338Z,35.45
2022-08-05T12:44:59.597Z,35.63
2022-08-05T12:48:32.239Z,35.62
2022-08-05T12:52:13.717Z,35.23
2022-08-05T12:54:54.432Z,35.37
2022-08-05T12:58:38.786Z,35.12
2022-08-05T13:02:00.258Z,35.36
2022-08-05T13:04:36.563Z,36.01
2022-08-05T13:07:58.263Z,35.73
2022-08-05T13:11:08.803Z,35.82
2022-08-05T13:14:36.100Z,35.81
2022-08-05T13:17:42.236Z,35.78
2022-08-05T13:20:53.068Z,35.84
2022-08-05T13:24:04.763Z,35.83
2022-08-05T13:27:17.203Z,35.73
2022-08-05T13:30:35.459Z,35.65
2022-08-05T13:34:20.401Z,35.55
2022-08-05T13:37:00.618Z,35.80
2022-08-05T13:40:36.682Z,35.79
2022-08-05T13:43:44.988Z,35.84
2022-08-05T13:47:02.418Z,35.92
2022-08-05T13:49:59.374Z,35.69
2022-08-05T13:53:15.885Z,35.66
2022-08-05T13:56:24.876Z,35.84
2022-08-05T13:59:37.206Z,35.73
2022-08-05T14:02:51.797Z,35.68
2022-08-05T14:06:26.396Z,35.48
2022-08-05T14:09:18.581Z,35.38
2022-08-05T14:12:33.038Z,35.29
2022-08-05T14:16:05.754Z,35.24
2022-08-05T14:19:04.455Z,35.08
2022-08-05T14:22:14.491Z,35.22
2022-08-05T14:25:27.992Z,35.15
2022-08-05T14:28:51.942Z,34.78
2022-08-05T14:32:02.356Z,35.07
2022-08-05T14:35:10.762Z,34.91
2022-08-05T14:38:32.242Z,34.93
2022-08-05T14:41:35.970Z,34.87
2022-08-05T14:44:48.192Z,34.69
2022-08-05T14:48:05.084Z,34.73
2022-08-05T14:51:16.068Z,34.59
2022-08-05T14:54:30.320Z,34.49
2022-08-05T14:57:54.345Z,34.42
2022-08-05T15:00:59.552Z,34.40
2022-08-05T15:04:11.707Z,34.23
2022-08-05T15:08:10.764Z,34.25
2022-08-05T15:10:37.524Z,34.11
2022-08-05T15:13:50.289Z,34.13
2022-08-05T15:17:03.772Z,34.09
2022-08-05T15:20:19.498Z,34.14
2022-08-05T15:23:32.117Z,34.03
2022-08-05T15:26:44.512Z,33.79
2022-08-05T15:29:57.418Z,33.51
2022-08-05T15:33:09.505Z,33.31
2022-08-05T15:36:24.488Z,33.22
2022-08-05T15:41:03.884Z,33.21
2022-08-05T15:42:56.822Z,33.15
2022-08-05T15:46:02.415Z,33.03
2022-08-05T15:49:23.125Z,32.87
2022-08-05T15:52:54.630Z,32.71
2022-08-05T15:56:01.852Z,32.61
2022-08-05T15:58:57.931Z,32.47
2022-08-05T16:02:14.736Z,32.37
2022-08-05T16:05:28.404Z,32.38
2022-08-05T16:08:40.248Z,32.31
2022-08-05T16:11:53.911Z,32.25
2022-08-05T16:15:06.512Z,32.14
2022-08-05T16:18:20.183Z,32.11
2022-08-05T16:21:59.371Z,32.07
2022-08-05T16:24:51.749Z,31.99
2022-08-05T16:28:05.998Z,31.84
2022-08-05T16:31:14.990Z,31.82
2022-08-05T16:34:28.545Z,31.73
2022-08-05T16:38:03.235Z,31.72
2022-08-05T16:41:00.202Z,31.66
2022-08-05T16:44:10.648Z,31.57
2022-08-05T16:47:29.050Z,31.49
2022-08-05T16:50:37.119Z,31.41
2022-08-05T16:54:03.990Z,31.36
2022-08-05T16:57:03.915Z,31.27
2022-08-05T17:00:34.723Z,31.25
2022-08-05T17:03:34.366Z,31.18
2022-08-05T17:06:45.970Z,31.10
2022-08-05T17:09:59.635Z,30.99
2022-08-05T17:13:16.848Z,30.86
2022-08-05T17:16:32.932Z,30.73
2022-08-05T17:19:39.317Z,30.64
2022-08-05T17:22:55.671Z,30.67
2022-08-05T17:26:04.966Z,30.53
2022-08-05T17:29:16.587Z,30.35
2022-08-05T17:32:28.803Z,30.32
2022-08-05T17:36:08.755Z,30.21
2022-08-05T17:38:54.885Z,30.07
2022-08-05T17:42:18.278Z,29.98
2022-08-05T17:45:22.598Z,29.90
2022-08-05T17:48:34.980Z,29.68
2022-08-05T17:51:48.187Z,29.42
2022-08-05T17:55:02.976Z,29.25
2022-08-05T17:58:17.616Z,29.09
2022-08-05T18:01:49.249Z,28.93
2022-08-05T18:04:53.240Z,28.81
2022-08-05T18:07:59.338Z,28.77
2022-08-05T18:11:11.475Z,28.68
2022-08-05T18:14:25.103Z,28.51
2022-08-05T18:18:00.393Z,28.43
2022-08-05T18:20:50.947Z,28.42
2022-08-05T18:24:04.718Z,28.34
2022-08-05T18:27:18.466Z,28.20
2022-08-05T18:30:32.358Z,28.21
2022-08-05T18:33:47.285Z,28.13
2022-08-05T18:36:58.102Z,27.99
2022-08-05T18:40:34.617Z,27.85
2022-08-05T18:43:31.693Z,27.73
2022-08-05T18:46:45.949Z,27.65
2022-08-05T18:50:15.414Z,27.61
2022-08-05T18:53:29.046Z,27.56
2022-08-05T18:56:50.842Z,27.43
2022-08-05T19:00:02.494Z,27.34
2022-08-05T19:03:11.594Z,27.19
2022-08-05T19:06:37.161Z,27.15
2022-08-05T19:09:40.130Z,27.05
2022-08-05T19:12:52.438Z,26.87
2022-08-05T19:16:04.414Z,26.69
2022-08-05T19:19:16.131Z,26.42
2022-08-05T19:22:30.116Z,26.38
2022-08-05T19:25:43.894Z,26.13
2022-08-05T19:28:56.477Z,26.07
2022-08-05T19:32:11.699Z,26.02
2022-08-05T19:35:23.278Z,25.81
2022-08-05T19:38:35.926Z,25.75
2022-08-05T19:42:07.132Z,25.74
2022-08-05T19:45:01.989Z,25.78
2022-08-05T19:48:14.802Z,25.79
2022-08-05T19:52:04.260Z,25.67
2022-08-05T19:54:41.679Z,25.53
2022-08-05T19:58:06.767Z,25.39
2022-08-05T20:01:07.916Z,25.11
2022-08-05T20:04:20.662Z,25.18
2022-08-05T20:07:48.334Z,25.23
2022-08-05T20:10:49.788Z,25.27
2022-08-05T20:14:12.125Z,25.22
2022-08-05T20:17:14.502Z,25.14
2022-08-05T20:20:28.125Z,25.10
2022-08-05T20:23:50.155Z,25.09
2022-08-05T20:26:54.750Z,25.04
2022-08-05T20:30:09.685Z,25.05
2022-08-05T20:33:23.274Z,25.05
2022-08-05T20:36:39.166Z,25.01
2022-08-05T20:39:51.718Z,24.90
2022-08-05T20:43:04.073Z,24.78
2022-08-05T20:46:18.573Z,24.77
2022-08-05T20:49:29.437Z,24.71
2022-08-05T20:52:43.604Z,24.72
2022-08-05T20:56:08.524Z,24.71
2022-08-05T20:59:15.930Z,24.69
2022-08-05T21:02:26.880Z,24.57
2022-08-05T21:05:53.318Z,24.40
2022-08-05T21:08:54.245Z,24.31
2022-08-05T21:12:08.890Z,24.03
2022-08-05T21:15:26.971Z,24.06
2022-08-05T21:18:42.968Z,24.04
2022-08-05T21:21:54.455Z,23.78
2022-08-05T21:25:06.304Z,23.61
2022-08-05T21:28:23.614Z,23.43
2022-08-05T21:31:41.100Z,23.45
2022-08-05T21:35:08.729Z,23.59
2022-08-05T21:38:02.364Z,23.41
2022-08-05T21:41:14.704Z,23.55
2022-08-05T21:44:35.795Z,23.43
2022-08-05T21:47:56.254Z,23.32
2022-08-05T21:51:02.899Z,23.29
2022-08-05T21:54:17.840Z,23.12
2022-08-05T21:57:33.870Z,23.12
2022-08-05T22:00:51.447Z,23.09
2022-08-05T22:04:07.368Z,23.05
2022-08-05T22:07:21.064Z,23.16
2022-08-05T22:10:34.897Z,23.18
2022-08-05T22:14:05.816Z,23.20
2022-08-05T22:17:03.990Z,23.23
2022-08-05T22:20:18.404Z,23.17
2022-08-05T22:24:02.650Z,22.99
2022-08-05T22:27:24.715Z,23.04
2022-08-05T22:30:44.063Z,23.01
2022-08-05T22:33:56.861Z,23.01
2022-08-05T22:37:08.227Z,22.95
2022-08-05T22:40:20.657Z,22.63
2022-08-05T22:43:37.345Z,22.60
2022-08-05T22:46:47.786Z,22.70
2022-08-05T22:50:21.666Z,22.71
2022-08-05T22:53:15.957Z,22.58
2022-08-05T22:56:30.054Z,22.62
2022-08-05T22:59:45.130Z,22.67
2022-08-05T23:02:59.517Z,22.68
2022-08-05T23:06:11.567Z,22.62
2022-08-05T23:09:27.455Z,22.57
2022-08-05T23:12:37.257Z,22.56
2022-08-05T23:15:50.312Z,22.52
2022-08-05T23:19:02.433Z,22.44
2022-08-05T23:22:14.154Z,22.36
2022-08-05T23:25:53.688Z,22.43
2022-08-05T23:28:43.100Z,22.38
2022-08-05T23:31:54.874Z,22.41
2022-08-05T23:35:08.145Z,22.33
2022-08-05T23:38:19.654Z,22.29
2022-08-05T23:41:34.319Z,22.24
2022-08-05T23:44:45.091Z,22.19
2022-08-05T23:47:59.380Z,22.15
2022-08-05T23:51:11.785Z,22.15
2022-08-05T23:54:26.468Z,22.14
2022-08-05T23:57:39.803Z,22.06
